sensor_id;sensor_type;location;lat;lon;timestamp;P1;durP1;ratioP1;P2;durP2;ratioP2
21814;SDS011;11069;48.988;8.450;2022-07-18T00:01:24;4.35;;;2.33;;
21814;SDS011;11069;48.988;8.450;2022-07-18T00:03:50;4.50;;;2.22;;
21814;SDS011;11069;48.988;8.450;2022-07-18T00:06:16;5.45;;;2.38;;
21814;SDS011;11069;48.988;8.450;2022-07-18T00:08:41;5.18;;;2.38;;
21814;SDS011;11069;48.988;8.450;2022-07-18T00:11:07;3.55;;;1.90;;
21814;SDS011;11069;48.988;8.450;2022-07-18T00:13:32;2.38;;;1.95;;
21814;SDS011;11069;48.988;8.450;2022-07-18T00:15:58;3.22;;;2.08;;
21814;SDS011;11069;48.988;8.450;2022-07-18T00:18:24;2.55;;;1.85;;
21814;SDS011;11069;48.988;8.450;2022-07-18T00:20:49;3.63;;;2.28;;
21814;SDS011;11069;48.988;8.450;2022-07-18T00:23:15;4.13;;;2.25;;
21814;SDS011;11069;48.988;8.450;2022-07-18T00:25:40;5.20;;;2.25;;
21814;SDS011;11069;48.988;8.450;2022-07-18T00:28:06;3.20;;;2.28;;
21814;SDS011;11069;48.988;8.450;2022-07-18T00:30:32;3.17;;;1.90;;
21814;SDS011;11069;48.988;8.450;2022-07-18T00:32:57;6.90;;;2.05;;
21814;SDS011;11069;48.988;8.450;2022-07-18T00:35:23;3.78;;;2.28;;
21814;SDS011;11069;48.988;8.450;2022-07-18T00:37:48;4.05;;;1.80;;
21814;SDS011;11069;48.988;8.450;2022-07-18T00:40:14;4.72;;;2.00;;
21814;SDS011;11069;48.988;8.450;2022-07-18T00:42:40;6.72;;;2.35;;
21814;SDS011;11069;48.988;8.450;2022-07-18T00:45:05;3.10;;;2.30;;
21814;SDS011;11069;48.988;8.450;2022-07-18T00:47:31;6.10;;;1.92;;
21814;SDS011;11069;48.988;8.450;2022-07-18T00:49:57;5.32;;;2.20;;
21814;SDS011;11069;48.988;8.450;2022-07-18T00:52:23;6.07;;;2.05;;
21814;SDS011;11069;48.988;8.450;2022-07-18T00:54:48;3.13;;;2.00;;
21814;SDS011;11069;48.988;8.450;2022-07-18T00:57:14;4.70;;;2.10;;
21814;SDS011;11069;48.988;8.450;2022-07-18T00:59:40;2.75;;;1.98;;
21814;SDS011;11069;48.988;8.450;2022-07-18T01:02:25;2.88;;;2.10;;
21814;SDS011;11069;48.988;8.450;2022-07-18T01:04:51;3.03;;;2.08;;
21814;SDS011;11069;48.988;8.450;2022-07-18T01:07:17;2.30;;;1.70;;
21814;SDS011;11069;48.988;8.450;2022-07-18T01:09:43;6.13;;;2.03;;
21814;SDS011;11069;48.988;8.450;2022-07-18T01:12:08;5.63;;;2.03;;
21814;SDS011;11069;48.988;8.450;2022-07-18T01:14:35;2.55;;;2.10;;
21814;SDS011;11069;48.988;8.450;2022-07-18T01:17:01;3.28;;;2.13;;
21814;SDS011;11069;48.988;8.450;2022-07-18T01:19:27;2.33;;;2.03;;
21814;SDS011;11069;48.988;8.450;2022-07-18T01:21:53;5.82;;;2.00;;
21814;SDS011;11069;48.988;8.450;2022-07-18T01:24:18;2.28;;;2.03;;
21814;SDS011;11069;48.988;8.450;2022-07-18T01:26:44;4.43;;;2.20;;
21814;SDS011;11069;48.988;8.450;2022-07-18T01:29:09;4.25;;;2.10;;
21814;SDS011;11069;48.988;8.450;2022-07-18T01:31:35;3.97;;;2.00;;
21814;SDS011;11069;48.988;8.450;2022-07-18T01:34:01;3.35;;;2.00;;
21814;SDS011;11069;48.988;8.450;2022-07-18T01:36:27;2.80;;;1.92;;
21814;SDS011;11069;48.988;8.450;2022-07-18T01:38:52;3.92;;;2.13;;
21814;SDS011;11069;48.988;8.450;2022-07-18T01:41:19;4.55;;;2.10;;
21814;SDS011;11069;48.988;8.450;2022-07-18T01:43:44;4.25;;;1.92;;
21814;SDS011;11069;48.988;8.450;2022-07-18T01:46:10;2.97;;;2.00;;
21814;SDS011;11069;48.988;8.450;2022-07-18T01:48:37;4.28;;;2.08;;
21814;SDS011;11069;48.988;8.450;2022-07-18T01:51:04;2.80;;;2.05;;
21814;SDS011;11069;48.988;8.450;2022-07-18T01:53:30;2.90;;;1.90;;
21814;SDS011;11069;48.988;8.450;2022-07-18T01:55:55;3.55;;;2.22;;
21814;SDS011;11069;48.988;8.450;2022-07-18T01:58:21;5.47;;;2.22;;
21814;SDS011;11069;48.988;8.450;2022-07-18T02:00:46;3.22;;;2.28;;
21814;SDS011;11069;48.988;8.450;2022-07-18T02:03:12;3.38;;;2.10;;
21814;SDS011;11069;48.988;8.450;2022-07-18T02:05:38;2.65;;;2.10;;
21814;SDS011;11069;48.988;8.450;2022-07-18T02:08:03;5.47;;;2.05;;
21814;SDS011;11069;48.988;8.450;2022-07-18T02:10:29;3.85;;;2.20;;
21814;SDS011;11069;48.988;8.450;2022-07-18T02:12:55;3.17;;;2.10;;
21814;SDS011;11069;48.988;8.450;2022-07-18T02:15:21;7.47;;;2.33;;
21814;SDS011;11069;48.988;8.450;2022-07-18T02:17:46;4.25;;;2.42;;
21814;SDS011;11069;48.988;8.450;2022-07-18T02:20:13;3.33;;;2.20;;
21814;SDS011;11069;48.988;8.450;2022-07-18T02:22:39;4.32;;;2.30;;
21814;SDS011;11069;48.988;8.450;2022-07-18T02:25:06;2.70;;;1.95;;
21814;SDS011;11069;48.988;8.450;2022-07-18T02:27:32;4.03;;;2.05;;
21814;SDS011;11069;48.988;8.450;2022-07-18T02:29:58;3.55;;;2.20;;
21814;SDS011;11069;48.988;8.450;2022-07-18T02:32:23;2.53;;;2.10;;
21814;SDS011;11069;48.988;8.450;2022-07-18T02:34:49;5.68;;;2.10;;
21814;SDS011;11069;48.988;8.450;2022-07-18T02:37:15;3.50;;;1.92;;
21814;SDS011;11069;48.988;8.450;2022-07-18T02:39:41;3.40;;;1.90;;
21814;SDS011;11069;48.988;8.450;2022-07-18T02:42:07;3.95;;;2.03;;
21814;SDS011;11069;48.988;8.450;2022-07-18T02:44:32;4.80;;;2.25;;
21814;SDS011;11069;48.988;8.450;2022-07-18T02:46:58;4.10;;;2.13;;
21814;SDS011;11069;48.988;8.450;2022-07-18T02:49:24;2.67;;;2.00;;
21814;SDS011;11069;48.988;8.450;2022-07-18T02:52:00;2.53;;;2.08;;
21814;SDS011;11069;48.988;8.450;2022-07-18T02:54:31;2.97;;;1.95;;
21814;SDS011;11069;48.988;8.450;2022-07-18T02:56:58;3.95;;;2.53;;
21814;SDS011;11069;48.988;8.450;2022-07-18T02:59:25;3.75;;;2.10;;
21814;SDS011;11069;48.988;8.450;2022-07-18T03:01:51;2.95;;;2.20;;
21814;SDS011;11069;48.988;8.450;2022-07-18T03:04:17;4.47;;;2.13;;
21814;SDS011;11069;48.988;8.450;2022-07-18T03:06:44;3.65;;;2.25;;
21814;SDS011;11069;48.988;8.450;2022-07-18T03:09:10;3.55;;;2.03;;
21814;SDS011;11069;48.988;8.450;2022-07-18T03:11:36;4.25;;;2.20;;
21814;SDS011;11069;48.988;8.450;2022-07-18T03:14:02;3.50;;;2.08;;
21814;SDS011;11069;48.988;8.450;2022-07-18T03:16:28;2.88;;;2.13;;
21814;SDS011;11069;48.988;8.450;2022-07-18T03:18:53;4.47;;;2.17;;
21814;SDS011;11069;48.988;8.450;2022-07-18T03:21:19;6.10;;;2.00;;
21814;SDS011;11069;48.988;8.450;2022-07-18T03:23:45;2.63;;;2.00;;
21814;SDS011;11069;48.988;8.450;2022-07-18T03:26:11;2.75;;;1.77;;
21814;SDS011;11069;48.988;8.450;2022-07-18T03:28:36;2.72;;;2.08;;
21814;SDS011;11069;48.988;8.450;2022-07-18T03:31:02;4.35;;;2.42;;
21814;SDS011;11069;48.988;8.450;2022-07-18T03:33:28;2.67;;;1.95;;
21814;SDS011;11069;48.988;8.450;2022-07-18T03:35:54;3.30;;;2.00;;
21814;SDS011;11069;48.988;8.450;2022-07-18T03:38:20;4.03;;;1.80;;
21814;SDS011;11069;48.988;8.450;2022-07-18T03:40:45;4.95;;;2.10;;
21814;SDS011;11069;48.988;8.450;2022-07-18T03:43:11;3.42;;;2.00;;
21814;SDS011;11069;48.988;8.450;2022-07-18T03:45:36;2.65;;;1.85;;
21814;SDS011;11069;48.988;8.450;2022-07-18T03:48:02;3.78;;;2.00;;
21814;SDS011;11069;48.988;8.450;2022-07-18T03:50:28;3.10;;;2.00;;
21814;SDS011;11069;48.988;8.450;2022-07-18T03:52:53;3.30;;;1.88;;
21814;SDS011;11069;48.988;8.450;2022-07-18T03:55:20;4.82;;;1.55;;
21814;SDS011;11069;48.988;8.450;2022-07-18T03:57:46;4.53;;;2.08;;
21814;SDS011;11069;48.988;8.450;2022-07-18T04:00:11;3.35;;;1.92;;
21814;SDS011;11069;48.988;8.450;2022-07-18T04:02:41;2.03;;;1.70;;
21814;SDS011;11069;48.988;8.450;2022-07-18T04:05:08;2.85;;;1.70;;
21814;SDS011;11069;48.988;8.450;2022-07-18T04:07:34;4.03;;;1.80;;
21814;SDS011;11069;48.988;8.450;2022-07-18T04:10:00;3.55;;;1.90;;
21814;SDS011;11069;48.988;8.450;2022-07-18T04:12:26;2.35;;;1.83;;
21814;SDS011;11069;48.988;8.450;2022-07-18T04:14:52;2.17;;;1.80;;
21814;SDS011;11069;48.988;8.450;2022-07-18T04:17:17;4.38;;;1.65;;
21814;SDS011;11069;48.988;8.450;2022-07-18T04:19:43;2.95;;;1.95;;
21814;SDS011;11069;48.988;8.450;2022-07-18T04:22:08;7.05;;;2.28;;
21814;SDS011;11069;48.988;8.450;2022-07-18T04:24:34;3.17;;;2.05;;
21814;SDS011;11069;48.988;8.450;2022-07-18T04:27:00;2.58;;;2.03;;
21814;SDS011;11069;48.988;8.450;2022-07-18T04:29:25;5.25;;;1.85;;
21814;SDS011;11069;48.988;8.450;2022-07-18T04:31:51;7.60;;;2.17;;
21814;SDS011;11069;48.988;8.450;2022-07-18T04:34:17;4.13;;;1.90;;
21814;SDS011;11069;48.988;8.450;2022-07-18T04:36:42;5.20;;;1.83;;
21814;SDS011;11069;48.988;8.450;2022-07-18T04:39:08;5.30;;;2.45;;
21814;SDS011;11069;48.988;8.450;2022-07-18T04:41:34;4.55;;;2.15;;
21814;SDS011;11069;48.988;8.450;2022-07-18T04:43:59;3.55;;;2.40;;
21814;SDS011;11069;48.988;8.450;2022-07-18T04:46:25;4.30;;;2.08;;
21814;SDS011;11069;48.988;8.450;2022-07-18T04:48:50;3.58;;;2.33;;
21814;SDS011;11069;48.988;8.450;2022-07-18T04:51:16;5.15;;;2.20;;
21814;SDS011;11069;48.988;8.450;2022-07-18T04:53:42;4.53;;;1.60;;
21814;SDS011;11069;48.988;8.450;2022-07-18T04:56:07;4.60;;;2.03;;
21814;SDS011;11069;48.988;8.450;2022-07-18T04:58:33;4.40;;;1.90;;
21814;SDS011;11069;48.988;8.450;2022-07-18T05:00:59;3.15;;;1.90;;
21814;SDS011;11069;48.988;8.450;2022-07-18T05:03:24;5.75;;;1.67;;
21814;SDS011;11069;48.988;8.450;2022-07-18T05:05:50;3.67;;;2.10;;
21814;SDS011;11069;48.988;8.450;2022-07-18T05:08:15;5.90;;;1.70;;
21814;SDS011;11069;48.988;8.450;2022-07-18T05:10:41;2.55;;;1.70;;
21814;SDS011;11069;48.988;8.450;2022-07-18T05:13:07;7.78;;;2.47;;
21814;SDS011;11069;48.988;8.450;2022-07-18T05:15:32;9.55;;;3.22;;
21814;SDS011;11069;48.988;8.450;2022-07-18T05:17:58;13.32;;;2.88;;
21814;SDS011;11069;48.988;8.450;2022-07-18T05:20:24;11.27;;;2.78;;
21814;SDS011;11069;48.988;8.450;2022-07-18T05:22:51;7.07;;;2.70;;
21814;SDS011;11069;48.988;8.450;2022-07-18T05:25:18;7.22;;;3.10;;
21814;SDS011;11069;48.988;8.450;2022-07-18T05:27:44;4.35;;;2.53;;
21814;SDS011;11069;48.988;8.450;2022-07-18T05:30:11;6.53;;;2.30;;
21814;SDS011;11069;48.988;8.450;2022-07-18T05:32:39;10.63;;;2.67;;
21814;SDS011;11069;48.988;8.450;2022-07-18T05:35:06;4.47;;;2.50;;
21814;SDS011;11069;48.988;8.450;2022-07-18T05:37:33;4.47;;;2.58;;
21814;SDS011;11069;48.988;8.450;2022-07-18T05:40:00;6.10;;;2.30;;
21814;SDS011;11069;48.988;8.450;2022-07-18T05:42:28;4.03;;;2.28;;
21814;SDS011;11069;48.988;8.450;2022-07-18T05:44:53;4.63;;;1.95;;
21814;SDS011;11069;48.988;8.450;2022-07-18T05:47:19;6.65;;;2.42;;
21814;SDS011;11069;48.988;8.450;2022-07-18T05:49:44;3.63;;;2.00;;
21814;SDS011;11069;48.988;8.450;2022-07-18T05:52:10;6.75;;;2.38;;
21814;SDS011;11069;48.988;8.450;2022-07-18T05:54:35;5.85;;;2.03;;
21814;SDS011;11069;48.988;8.450;2022-07-18T05:57:01;4.90;;;2.03;;
21814;SDS011;11069;48.988;8.450;2022-07-18T05:59:27;5.80;;;2.30;;
21814;SDS011;11069;48.988;8.450;2022-07-18T06:01:52;5.97;;;2.55;;
21814;SDS011;11069;48.988;8.450;2022-07-18T06:04:18;9.90;;;2.20;;
21814;SDS011;11069;48.988;8.450;2022-07-18T06:06:43;3.05;;;2.08;;
21814;SDS011;11069;48.988;8.450;2022-07-18T06:09:09;3.20;;;2.00;;
21814;SDS011;11069;48.988;8.450;2022-07-18T06:11:36;5.53;;;1.90;;
21814;SDS011;11069;48.988;8.450;2022-07-18T06:14:01;6.80;;;2.22;;
21814;SDS011;11069;48.988;8.450;2022-07-18T06:16:28;4.68;;;1.90;;
21814;SDS011;11069;48.988;8.450;2022-07-18T06:18:54;10.95;;;2.35;;
21814;SDS011;11069;48.988;8.450;2022-07-18T06:21:20;11.52;;;2.40;;
21814;SDS011;11069;48.988;8.450;2022-07-18T06:23:46;4.43;;;2.17;;
21814;SDS011;11069;48.988;8.450;2022-07-18T06:26:12;3.80;;;2.10;;
21814;SDS011;11069;48.988;8.450;2022-07-18T06:28:37;6.57;;;2.13;;
21814;SDS011;11069;48.988;8.450;2022-07-18T06:31:24;5.13;;;2.47;;
21814;SDS011;11069;48.988;8.450;2022-07-18T06:33:59;5.95;;;1.80;;
21814;SDS011;11069;48.988;8.450;2022-07-18T06:36:24;6.45;;;2.60;;
21814;SDS011;11069;48.988;8.450;2022-07-18T06:38:50;7.75;;;2.40;;
21814;SDS011;11069;48.988;8.450;2022-07-18T06:41:16;5.78;;;2.00;;
21814;SDS011;11069;48.988;8.450;2022-07-18T06:43:43;8.45;;;2.30;;
21814;SDS011;11069;48.988;8.450;2022-07-18T06:46:08;6.50;;;2.15;;
21814;SDS011;11069;48.988;8.450;2022-07-18T06:48:34;5.15;;;1.95;;
21814;SDS011;11069;48.988;8.450;2022-07-18T06:51:01;6.90;;;2.53;;
21814;SDS011;11069;48.988;8.450;2022-07-18T06:53:28;6.43;;;2.42;;
21814;SDS011;11069;48.988;8.450;2022-07-18T06:55:54;8.88;;;2.50;;
21814;SDS011;11069;48.988;8.450;2022-07-18T06:58:20;11.00;;;2.53;;
21814;SDS011;11069;48.988;8.450;2022-07-18T07:00:45;8.65;;;2.63;;
21814;SDS011;11069;48.988;8.450;2022-07-18T07:03:11;8.77;;;2.20;;
21814;SDS011;11069;48.988;8.450;2022-07-18T07:05:37;6.30;;;2.42;;
21814;SDS011;11069;48.988;8.450;2022-07-18T07:08:03;4.93;;;2.10;;
21814;SDS011;11069;48.988;8.450;2022-07-18T07:10:29;10.90;;;2.67;;
21814;SDS011;11069;48.988;8.450;2022-07-18T07:12:54;8.95;;;2.17;;
21814;SDS011;11069;48.988;8.450;2022-07-18T07:15:21;7.65;;;2.17;;
21814;SDS011;11069;48.988;8.450;2022-07-18T07:17:47;7.47;;;2.17;;
21814;SDS011;11069;48.988;8.450;2022-07-18T07:20:14;6.68;;;2.33;;
21814;SDS011;11069;48.988;8.450;2022-07-18T07:25:08;5.25;;;2.10;;
21814;SDS011;11069;48.988;8.450;2022-07-18T07:27:34;5.97;;;1.80;;
21814;SDS011;11069;48.988;8.450;2022-07-18T07:29:59;6.70;;;2.17;;
21814;SDS011;11069;48.988;8.450;2022-07-18T07:32:25;7.35;;;2.13;;
21814;SDS011;11069;48.988;8.450;2022-07-18T07:34:50;6.25;;;2.20;;
21814;SDS011;11069;48.988;8.450;2022-07-18T07:37:16;5.43;;;2.20;;
21814;SDS011;11069;48.988;8.450;2022-07-18T07:39:42;7.50;;;2.25;;
21814;SDS011;11069;48.988;8.450;2022-07-18T07:42:07;6.03;;;2.10;;
21814;SDS011;11069;48.988;8.450;2022-07-18T07:44:33;5.05;;;2.25;;
21814;SDS011;11069;48.988;8.450;2022-07-18T07:46:58;5.07;;;2.03;;
21814;SDS011;11069;48.988;8.450;2022-07-18T07:49:24;5.38;;;2.03;;
21814;SDS011;11069;48.988;8.450;2022-07-18T07:51:50;3.75;;;1.98;;
21814;SDS011;11069;48.988;8.450;2022-07-18T07:54:16;8.00;;;2.15;;
21814;SDS011;11069;48.988;8.450;2022-07-18T07:56:42;10.88;;;2.20;;
21814;SDS011;11069;48.988;8.450;2022-07-18T07:59:07;11.27;;;2.33;;
21814;SDS011;11069;48.988;8.450;2022-07-18T08:01:33;3.60;;;2.10;;
21814;SDS011;11069;48.988;8.450;2022-07-18T08:03:58;10.68;;;2.10;;
21814;SDS011;11069;48.988;8.450;2022-07-18T08:06:24;8.10;;;2.13;;
21814;SDS011;11069;48.988;8.450;2022-07-18T08:08:50;8.15;;;2.20;;
21814;SDS011;11069;48.988;8.450;2022-07-18T08:11:15;7.32;;;1.90;;
21814;SDS011;11069;48.988;8.450;2022-07-18T08:13:41;9.13;;;2.28;;
21814;SDS011;11069;48.988;8.450;2022-07-18T08:16:07;5.55;;;1.80;;
21814;SDS011;11069;48.988;8.450;2022-07-18T08:18:33;5.03;;;2.05;;
21814;SDS011;11069;48.988;8.450;2022-07-18T08:20:58;4.45;;;1.90;;
21814;SDS011;11069;48.988;8.450;2022-07-18T08:23:24;5.57;;;1.90;;
21814;SDS011;11069;48.988;8.450;2022-07-18T08:25:49;5.95;;;2.00;;
21814;SDS011;11069;48.988;8.450;2022-07-18T08:28:16;6.72;;;1.75;;
21814;SDS011;11069;48.988;8.450;2022-07-18T08:30:41;4.07;;;1.90;;
21814;SDS011;11069;48.988;8.450;2022-07-18T08:33:07;4.18;;;1.90;;
21814;SDS011;11069;48.988;8.450;2022-07-18T08:35:33;4.18;;;1.80;;
21814;SDS011;11069;48.988;8.450;2022-07-18T08:38:00;6.22;;;2.17;;
21814;SDS011;11069;48.988;8.450;2022-07-18T08:40:27;3.83;;;1.65;;
21814;SDS011;11069;48.988;8.450;2022-07-18T08:42:53;6.10;;;1.75;;
21814;SDS011;11069;48.988;8.450;2022-07-18T08:45:21;5.03;;;2.00;;
21814;SDS011;11069;48.988;8.450;2022-07-18T08:47:48;7.28;;;1.70;;
21814;SDS011;11069;48.988;8.450;2022-07-18T08:50:14;4.72;;;2.50;;
21814;SDS011;11069;48.988;8.450;2022-07-18T08:52:40;6.45;;;2.00;;
21814;SDS011;11069;48.988;8.450;2022-07-18T08:55:07;4.85;;;1.70;;
21814;SDS011;11069;48.988;8.450;2022-07-18T08:57:33;6.15;;;1.83;;
21814;SDS011;11069;48.988;8.450;2022-07-18T08:59:59;4.68;;;1.55;;
21814;SDS011;11069;48.988;8.450;2022-07-18T09:02:27;4.88;;;1.80;;
21814;SDS011;11069;48.988;8.450;2022-07-18T09:04:53;3.08;;;1.60;;
21814;SDS011;11069;48.988;8.450;2022-07-18T09:07:23;5.68;;;2.05;;
21814;SDS011;11069;48.988;8.450;2022-07-18T09:09:56;6.28;;;2.00;;
21814;SDS011;11069;48.988;8.450;2022-07-18T09:12:24;4.10;;;2.13;;
21814;SDS011;11069;48.988;8.450;2022-07-18T09:14:53;5.45;;;1.83;;
21814;SDS011;11069;48.988;8.450;2022-07-18T09:20:00;7.95;;;1.92;;
21814;SDS011;11069;48.988;8.450;2022-07-18T09:22:31;5.30;;;1.85;;
21814;SDS011;11069;48.988;8.450;2022-07-18T09:27:25;4.65;;;1.92;;
21814;SDS011;11069;48.988;8.450;2022-07-18T09:30:07;10.77;;;2.08;;
21814;SDS011;11069;48.988;8.450;2022-07-18T09:35:28;4.40;;;1.75;;
21814;SDS011;11069;48.988;8.450;2022-07-18T09:43:01;5.53;;;1.80;;
21814;SDS011;11069;48.988;8.450;2022-07-18T09:45:30;6.07;;;2.00;;
21814;SDS011;11069;48.988;8.450;2022-07-18T09:48:07;5.32;;;2.15;;
21814;SDS011;11069;48.988;8.450;2022-07-18T09:55:42;6.72;;;1.95;;
21814;SDS011;11069;48.988;8.450;2022-07-18T09:58:14;3.63;;;1.70;;
21814;SDS011;11069;48.988;8.450;2022-07-18T10:00:43;4.13;;;1.63;;
21814;SDS011;11069;48.988;8.450;2022-07-18T10:03:09;6.07;;;1.50;;
21814;SDS011;11069;48.988;8.450;2022-07-18T10:05:36;8.55;;;1.90;;
21814;SDS011;11069;48.988;8.450;2022-07-18T10:08:04;6.82;;;1.80;;
21814;SDS011;11069;48.988;8.450;2022-07-18T10:10:35;4.07;;;2.05;;
21814;SDS011;11069;48.988;8.450;2022-07-18T10:13:02;4.40;;;1.85;;
21814;SDS011;11069;48.988;8.450;2022-07-18T10:15:30;3.35;;;2.00;;
21814;SDS011;11069;48.988;8.450;2022-07-18T10:17:57;5.80;;;1.73;;
21814;SDS011;11069;48.988;8.450;2022-07-18T10:20:24;2.30;;;1.50;;
21814;SDS011;11069;48.988;8.450;2022-07-18T10:23:08;7.32;;;1.80;;
21814;SDS011;11069;48.988;8.450;2022-07-18T10:25:40;5.68;;;1.90;;
21814;SDS011;11069;48.988;8.450;2022-07-18T10:28:07;3.63;;;1.60;;
21814;SDS011;11069;48.988;8.450;2022-07-18T10:30:36;3.03;;;1.60;;
21814;SDS011;11069;48.988;8.450;2022-07-18T10:36:10;7.43;;;1.75;;
21814;SDS011;11069;48.988;8.450;2022-07-18T10:38:38;2.33;;;1.50;;
21814;SDS011;11069;48.988;8.450;2022-07-18T10:41:23;3.33;;;1.40;;
21814;SDS011;11069;48.988;8.450;2022-07-18T10:43:49;4.60;;;1.65;;
21814;SDS011;11069;48.988;8.450;2022-07-18T10:46:14;6.57;;;1.80;;
21814;SDS011;11069;48.988;8.450;2022-07-18T10:51:09;4.43;;;1.40;;
21814;SDS011;11069;48.988;8.450;2022-07-18T10:59:16;5.20;;;1.73;;
21814;SDS011;11069;48.988;8.450;2022-07-18T11:01:51;8.77;;;1.77;;
21814;SDS011;11069;48.988;8.450;2022-07-18T11:04:22;4.63;;;1.70;;
21814;SDS011;11069;48.988;8.450;2022-07-18T11:06:54;4.45;;;1.63;;
21814;SDS011;11069;48.988;8.450;2022-07-18T11:22:51;4.57;;;1.45;;
21814;SDS011;11069;48.988;8.450;2022-07-18T11:25:17;7.63;;;1.95;;
21814;SDS011;11069;48.988;8.450;2022-07-18T11:27:43;2.90;;;1.60;;
21814;SDS011;11069;48.988;8.450;2022-07-18T11:30:10;4.43;;;1.80;;
21814;SDS011;11069;48.988;8.450;2022-07-18T11:32:41;6.30;;;1.80;;
21814;SDS011;11069;48.988;8.450;2022-07-18T11:35:07;6.18;;;2.00;;
21814;SDS011;11069;48.988;8.450;2022-07-18T11:37:33;3.88;;;1.60;;
21814;SDS011;11069;48.988;8.450;2022-07-18T11:40:05;4.28;;;1.70;;
21814;SDS011;11069;48.988;8.450;2022-07-18T11:42:35;3.80;;;1.67;;
21814;SDS011;11069;48.988;8.450;2022-07-18T11:45:05;2.08;;;1.73;;
21814;SDS011;11069;48.988;8.450;2022-07-18T11:47:36;4.68;;;1.58;;
21814;SDS011;11069;48.988;8.450;2022-07-18T11:50:03;3.38;;;1.65;;
21814;SDS011;11069;48.988;8.450;2022-07-18T11:52:29;4.07;;;1.90;;
21814;SDS011;11069;48.988;8.450;2022-07-18T11:54:58;7.80;;;1.80;;
21814;SDS011;11069;48.988;8.450;2022-07-18T11:57:29;2.80;;;1.35;;
21814;SDS011;11069;48.988;8.450;2022-07-18T11:59:55;7.05;;;1.50;;
21814;SDS011;11069;48.988;8.450;2022-07-18T12:05:34;5.13;;;1.90;;
21814;SDS011;11069;48.988;8.450;2022-07-18T12:08:23;7.15;;;1.85;;
21814;SDS011;11069;48.988;8.450;2022-07-18T12:11:03;3.65;;;1.38;;
21814;SDS011;11069;48.988;8.450;2022-07-18T12:13:52;3.97;;;1.50;;
21814;SDS011;11069;48.988;8.450;2022-07-18T12:16:38;3.15;;;1.65;;
21814;SDS011;11069;48.988;8.450;2022-07-18T12:21:47;4.72;;;1.70;;
21814;SDS011;11069;48.988;8.450;2022-07-18T12:32:28;2.47;;;1.37;;
21814;SDS011;11069;48.988;8.450;2022-07-18T12:35:04;6.40;;;1.83;;
21814;SDS011;11069;48.988;8.450;2022-07-18T12:37:35;5.45;;;1.50;;
21814;SDS011;11069;48.988;8.450;2022-07-18T12:40:07;11.45;;;1.98;;
21814;SDS011;11069;48.988;8.450;2022-07-18T12:42:38;3.60;;;1.33;;
21814;SDS011;11069;48.988;8.450;2022-07-18T12:45:07;6.38;;;1.58;;
21814;SDS011;11069;48.988;8.450;2022-07-18T12:47:34;7.93;;;1.60;;
21814;SDS011;11069;48.988;8.450;2022-07-18T12:50:00;3.65;;;1.65;;
21814;SDS011;11069;48.988;8.450;2022-07-18T12:52:26;2.25;;;1.42;;
21814;SDS011;11069;48.988;8.450;2022-07-18T12:54:52;4.65;;;1.42;;
21814;SDS011;11069;48.988;8.450;2022-07-18T12:57:18;6.68;;;1.63;;
21814;SDS011;11069;48.988;8.450;2022-07-18T12:59:44;2.28;;;1.45;;
21814;SDS011;11069;48.988;8.450;2022-07-18T13:02:11;1.73;;;1.40;;
21814;SDS011;11069;48.988;8.450;2022-07-18T13:04:38;6.40;;;1.70;;
21814;SDS011;11069;48.988;8.450;2022-07-18T13:07:04;4.32;;;1.80;;
21814;SDS011;11069;48.988;8.450;2022-07-18T13:09:30;3.53;;;1.40;;
21814;SDS011;11069;48.988;8.450;2022-07-18T13:11:56;6.75;;;1.80;;
21814;SDS011;11069;48.988;8.450;2022-07-18T13:14:23;4.00;;;1.35;;
21814;SDS011;11069;48.988;8.450;2022-07-18T13:16:48;3.90;;;1.80;;
21814;SDS011;11069;48.988;8.450;2022-07-18T13:19:15;7.57;;;1.52;;
21814;SDS011;11069;48.988;8.450;2022-07-18T13:21:41;4.97;;;1.33;;
21814;SDS011;11069;48.988;8.450;2022-07-18T13:24:08;2.55;;;1.65;;
21814;SDS011;11069;48.988;8.450;2022-07-18T13:26:34;3.80;;;1.45;;
21814;SDS011;11069;48.988;8.450;2022-07-18T13:29:00;2.85;;;1.50;;
21814;SDS011;11069;48.988;8.450;2022-07-18T13:31:25;4.40;;;1.63;;
21814;SDS011;11069;48.988;8.450;2022-07-18T13:33:51;4.53;;;1.30;;
21814;SDS011;11069;48.988;8.450;2022-07-18T13:36:17;5.80;;;1.60;;
21814;SDS011;11069;48.988;8.450;2022-07-18T13:38:44;7.85;;;2.03;;
21814;SDS011;11069;48.988;8.450;2022-07-18T13:41:09;3.15;;;1.40;;
21814;SDS011;11069;48.988;8.450;2022-07-18T13:43:36;2.65;;;1.52;;
21814;SDS011;11069;48.988;8.450;2022-07-18T13:46:04;3.80;;;1.48;;
21814;SDS011;11069;48.988;8.450;2022-07-18T13:48:33;5.20;;;1.40;;
21814;SDS011;11069;48.988;8.450;2022-07-18T13:50:59;5.95;;;1.70;;
21814;SDS011;11069;48.988;8.450;2022-07-18T13:53:25;2.10;;;1.50;;
21814;SDS011;11069;48.988;8.450;2022-07-18T13:55:51;1.55;;;1.10;;
21814;SDS011;11069;48.988;8.450;2022-07-18T13:58:17;3.13;;;1.50;;
21814;SDS011;11069;48.988;8.450;2022-07-18T14:00:43;1.95;;;1.25;;
21814;SDS011;11069;48.988;8.450;2022-07-18T14:03:10;2.25;;;1.35;;
21814;SDS011;11069;48.988;8.450;2022-07-18T14:05:35;6.78;;;1.70;;
21814;SDS011;11069;48.988;8.450;2022-07-18T14:08:02;5.25;;;1.35;;
21814;SDS011;11069;48.988;8.450;2022-07-18T14:10:28;3.58;;;1.27;;
21814;SDS011;11069;48.988;8.450;2022-07-18T14:12:54;7.50;;;1.42;;
21814;SDS011;11069;48.988;8.450;2022-07-18T14:15:19;1.98;;;1.60;;
21814;SDS011;11069;48.988;8.450;2022-07-18T14:17:45;2.70;;;1.40;;
21814;SDS011;11069;48.988;8.450;2022-07-18T14:20:11;2.35;;;1.15;;
21814;SDS011;11069;48.988;8.450;2022-07-18T14:22:38;5.47;;;1.50;;
21814;SDS011;11069;48.988;8.450;2022-07-18T14:25:05;3.45;;;1.38;;
21814;SDS011;11069;48.988;8.450;2022-07-18T14:27:32;4.35;;;1.55;;
21814;SDS011;11069;48.988;8.450;2022-07-18T14:29:58;4.15;;;1.45;;
21814;SDS011;11069;48.988;8.450;2022-07-18T14:32:25;2.15;;;1.40;;
21814;SDS011;11069;48.988;8.450;2022-07-18T14:34:51;3.88;;;1.40;;
21814;SDS011;11069;48.988;8.450;2022-07-18T14:37:17;3.42;;;1.20;;
21814;SDS011;11069;48.988;8.450;2022-07-18T14:39:43;5.28;;;1.60;;
21814;SDS011;11069;48.988;8.450;2022-07-18T14:42:09;4.35;;;1.60;;
21814;SDS011;11069;48.988;8.450;2022-07-18T14:44:34;2.42;;;1.40;;
21814;SDS011;11069;48.988;8.450;2022-07-18T14:47:00;7.10;;;1.80;;
21814;SDS011;11069;48.988;8.450;2022-07-18T14:49:26;1.77;;;1.20;;
21814;SDS011;11069;48.988;8.450;2022-07-18T14:51:51;5.30;;;1.48;;
21814;SDS011;11069;48.988;8.450;2022-07-18T14:54:17;2.53;;;1.67;;
21814;SDS011;11069;48.988;8.450;2022-07-18T14:56:43;2.78;;;1.50;;
21814;SDS011;11069;48.988;8.450;2022-07-18T14:59:08;4.93;;;1.50;;
21814;SDS011;11069;48.988;8.450;2022-07-18T15:01:34;4.97;;;1.40;;
21814;SDS011;11069;48.988;8.450;2022-07-18T15:03:59;2.97;;;1.45;;
21814;SDS011;11069;48.988;8.450;2022-07-18T15:06:26;3.13;;;1.40;;
21814;SDS011;11069;48.988;8.450;2022-07-18T15:08:51;2.70;;;1.45;;
21814;SDS011;11069;48.988;8.450;2022-07-18T15:11:17;5.47;;;1.67;;
21814;SDS011;11069;48.988;8.450;2022-07-18T15:13:46;3.80;;;1.70;;
21814;SDS011;11069;48.988;8.450;2022-07-18T15:16:12;3.10;;;1.67;;
21814;SDS011;11069;48.988;8.450;2022-07-18T15:18:38;3.45;;;1.63;;
21814;SDS011;11069;48.988;8.450;2022-07-18T15:21:04;4.55;;;1.80;;
21814;SDS011;11069;48.988;8.450;2022-07-18T15:23:30;4.45;;;1.95;;
21814;SDS011;11069;48.988;8.450;2022-07-18T15:25:55;4.03;;;1.45;;
21814;SDS011;11069;48.988;8.450;2022-07-18T15:28:21;3.78;;;1.50;;
21814;SDS011;11069;48.988;8.450;2022-07-18T15:30:48;2.85;;;1.30;;
21814;SDS011;11069;48.988;8.450;2022-07-18T15:33:14;2.95;;;1.42;;
21814;SDS011;11069;48.988;8.450;2022-07-18T15:35:40;6.35;;;1.80;;
21814;SDS011;11069;48.988;8.450;2022-07-18T15:38:06;5.72;;;1.73;;
21814;SDS011;11069;48.988;8.450;2022-07-18T15:40:31;3.05;;;1.48;;
21814;SDS011;11069;48.988;8.450;2022-07-18T15:42:57;1.45;;;1.35;;
21814;SDS011;11069;48.988;8.450;2022-07-18T15:45:23;6.55;;;1.60;;